sensor_id;sensor_type;location;lat;lon;timestamp;pressure;altitude;pressure_sealevel;temperature;humidity
46087;BME280;31824;49.648;8.640;2023-01-26T00:01:12;101064.53;;;0.43;100.00
46087;BME280;31824;49.648;8.640;2023-01-26T00:04:14;101060.78;;;0.47;100.00
46087;BME280;31824;49.648;8.640;2023-01-26T00:07:17;101068.16;;;0.32;100.00
46087;BME280;31824;49.648;8.640;2023-01-26T00:10:19;101074.50;;;0.35;100.00
46087;BME280;31824;49.648;8.640;2023-01-26T00:13:21;101063.66;;;0.37;100.00
46087;BME280;31824;49.648;8.640;2023-01-26T00:16:24;101055.69;;;0.36;100.00
46087;BME280;31824;49.648;8.640;2023-01-26T00:19:26;101048.75;;;0.23;100.00
46087;BME280;31824;49.648;8.640;2023-01-26T00:22:29;101045.16;;;0.28;100.00
46087;BME280;31824;49.648;8.640;2023-01-26T00:25:31;101047.28;;;0.25;100.00
46087;BME280;31824;49.648;8.640;2023-01-26T00:28:33;101043.56;;;0.23;100.00
46087;BME280;31824;49.648;8.640;2023-01-26T00:31:34;101036.09;;;0.19;100.00
46087;BME280;31824;49.648;8.640;2023-01-26T00:34:36;101032.53;;;0.19;100.00
46087;BME280;31824;49.648;8.640;2023-01-26T00:37:41;101032.31;;;0.17;100.00
46087;BME280;31824;49.648;8.640;2023-01-26T00:40:43;101026.66;;;0.20;100.00
46087;BME280;31824;49.648;8.640;2023-01-26T00:43:44;101015.38;;;0.25;100.00
46087;BME280;31824;49.648;8.640;2023-01-26T00:46:46;101017.72;;;0.23;100.00
46087;BME280;31824;49.648;8.640;2023-01-26T00:49:48;101033.94;;;0.22;100.00
46087;BME280;31824;49.648;8.640;2023-01-26T00:52:51;101023.81;;;0.24;100.00
46087;BME280;31824;49.648;8.640;2023-01-26T00:55:54;101029.97;;;0.19;100.00
46087;BME280;31824;49.648;8.640;2023-01-26T00:58:58;101021.00;;;0.22;100.00
46087;BME280;31824;49.648;8.640;2023-01-26T01:02:00;101025.97;;;0.15;100.00
46087;BME280;31824;49.648;8.640;2023-01-26T01:05:03;101015.41;;;0.13;100.00
46087;BME280;31824;49.648;8.640;2023-01-26T01:08:06;101018.97;;;0.14;100.00
46087;BME280;31824;49.648;8.640;2023-01-26T01:11:10;101025.91;;;0.26;100.00
46087;BME280;31824;49.648;8.640;2023-01-26T01:14:12;101011.00;;;0.12;100.00
46087;BME280;31824;49.648;8.640;2023-01-26T01:17:14;101012.44;;;0.05;100.00
46087;BME280;31824;49.648;8.640;2023-01-26T01:20:16;101017.25;;;0.20;100.00
46087;BME280;31824;49.648;8.640;2023-01-26T01:23:20;101021.13;;;0.05;100.00
46087;BME280;31824;49.648;8.640;2023-01-26T01:26:22;101015.25;;;0.06;100.00
46087;BME280;31824;49.648;8.640;2023-01-26T01:29:24;101019.00;;;0.03;100.00
46087;BME280;31824;49.648;8.640;2023-01-26T01:32:25;101006.34;;;0.04;100.00
46087;BME280;31824;49.648;8.640;2023-01-26T01:35:27;101014.09;;;0.04;100.00
46087;BME280;31824;49.648;8.640;2023-01-26T01:38:32;101014.59;;;0.02;100.00
46087;BME280;31824;49.648;8.640;2023-01-26T01:41:34;101015.25;;;0.06;100.00
46087;BME280;31824;49.648;8.640;2023-01-26T01:44:36;101010.03;;;0.12;100.00
46087;BME280;31824;49.648;8.640;2023-01-26T01:47:38;101006.38;;;-0.02;100.00
46087;BME280;31824;49.648;8.640;2023-01-26T01:50:41;101005.66;;;-0.01;100.00
46087;BME280;31824;49.648;8.640;2023-01-26T01:53:47;101011.56;;;-0.07;100.00
46087;BME280;31824;49.648;8.640;2023-01-26T01:56:55;101009.00;;;-0.07;100.00
46087;BME280;31824;49.648;8.640;2023-01-26T02:00:04;101009.44;;;-0.04;100.00
46087;BME280;31824;49.648;8.640;2023-01-26T02:03:13;101017.81;;;0.06;100.00
46087;BME280;31824;49.648;8.640;2023-01-26T02:06:20;101012.25;;;-0.03;100.00
46087;BME280;31824;49.648;8.640;2023-01-26T02:09:29;101011.84;;;-0.11;100.00
46087;BME280;31824;49.648;8.640;2023-01-26T02:12:53;101010.88;;;-0.06;100.00
46087;BME280;31824;49.648;8.640;2023-01-26T02:16:01;101011.34;;;-0.09;100.00
46087;BME280;31824;49.648;8.640;2023-01-26T02:19:03;101004.56;;;-0.14;100.00
46087;BME280;31824;49.648;8.640;2023-01-26T02:22:09;100991.66;;;-0.14;100.00
46087;BME280;31824;49.648;8.640;2023-01-26T02:25:26;101001.53;;;-0.17;100.00
46087;BME280;31824;49.648;8.640;2023-01-26T02:28:32;100997.81;;;-0.25;100.00
46087;BME280;31824;49.648;8.640;2023-01-26T02:31:34;100997.78;;;-0.19;100.00
46087;BME280;31824;49.648;8.640;2023-01-26T02:34:37;100991.47;;;-0.21;100.00
46087;BME280;31824;49.648;8.640;2023-01-26T02:37:39;100991.97;;;-0.24;100.00
46087;BME280;31824;49.648;8.640;2023-01-26T02:40:45;100987.06;;;-0.28;100.00
46087;BME280;31824;49.648;8.640;2023-01-26T02:43:53;100982.56;;;-0.23;100.00
46087;BME280;31824;49.648;8.640;2023-01-26T02:46:55;100990.13;;;-0.30;100.00
46087;BME280;31824;49.648;8.640;2023-01-26T02:49:56;100989.84;;;-0.26;100.00
46087;BME280;31824;49.648;8.640;2023-01-26T02:53:02;100986.44;;;-0.44;100.00
46087;BME280;31824;49.648;8.640;2023-01-26T02:56:05;100983.31;;;-0.36;100.00
46087;BME280;31824;49.648;8.640;2023-01-26T02:59:08;100983.72;;;-0.21;100.00
46087;BME280;31824;49.648;8.640;2023-01-26T03:02:10;100974.19;;;-0.33;100.00
46087;BME280;31824;49.648;8.640;2023-01-26T03:05:12;100974.19;;;-0.33;100.00
46087;BME280;31824;49.648;8.640;2023-01-26T03:08:14;100972.47;;;-0.27;100.00
46087;BME280;31824;49.648;8.640;2023-01-26T03:11:17;100965.28;;;-0.41;100.00
46087;BME280;31824;49.648;8.640;2023-01-26T03:14:20;100964.63;;;-0.46;100.00
46087;BME280;31824;49.648;8.640;2023-01-26T03:17:23;100963.19;;;-0.44;100.00
46087;BME280;31824;49.648;8.640;2023-01-26T03:20:24;100954.28;;;-0.40;100.00
46087;BME280;31824;49.648;8.640;2023-01-26T03:23:48;100957.19;;;-0.56;100.00
46087;BME280;31824;49.648;8.640;2023-01-26T03:27:08;100958.25;;;-0.42;100.00
46087;BME280;31824;49.648;8.640;2023-01-26T03:30:35;100958.34;;;-0.54;100.00
46087;BME280;31824;49.648;8.640;2023-01-26T03:33:37;100950.59;;;-0.54;100.00
46087;BME280;31824;49.648;8.640;2023-01-26T03:36:39;100951.31;;;-0.60;100.00
46087;BME280;31824;49.648;8.640;2023-01-26T03:39:45;100946.59;;;-0.57;100.00
46087;BME280;31824;49.648;8.640;2023-01-26T03:43:07;100938.41;;;-0.60;100.00
46087;BME280;31824;49.648;8.640;2023-01-26T03:46:30;100940.28;;;-0.59;100.00
46087;BME280;31824;49.648;8.640;2023-01-26T03:49:51;100937.97;;;-0.63;100.00
46087;BME280;31824;49.648;8.640;2023-01-26T03:53:14;100938.63;;;-0.59;100.00
46087;BME280;31824;49.648;8.640;2023-01-26T03:56:35;100935.16;;;-0.65;100.00
46087;BME280;31824;49.648;8.640;2023-01-26T03:59:41;100936.56;;;-0.67;100.00
46087;BME280;31824;49.648;8.640;2023-01-26T04:02:50;100933.03;;;-0.62;100.00
46087;BME280;31824;49.648;8.640;2023-01-26T04:06:10;100940.69;;;-0.51;100.00
46087;BME280;31824;49.648;8.640;2023-01-26T04:09:31;100934.81;;;-0.44;100.00
46087;BME280;31824;49.648;8.640;2023-01-26T04:12:33;100936.94;;;-0.47;100.00
46087;BME280;31824;49.648;8.640;2023-01-26T04:15:49;100932.25;;;-0.49;100.00
46087;BME280;31824;49.648;8.640;2023-01-26T04:19:11;100933.44;;;-0.47;100.00
46087;BME280;31824;49.648;8.640;2023-01-26T04:22:34;100928.53;;;-0.52;100.00
46087;BME280;31824;49.648;8.640;2023-01-26T04:25:40;100928.22;;;-0.42;100.00
46087;BME280;31824;49.648;8.640;2023-01-26T04:28:42;100925.16;;;-0.39;100.00
46087;BME280;31824;49.648;8.640;2023-01-26T04:31:44;100916.00;;;-0.37;100.00
46087;BME280;31824;49.648;8.640;2023-01-26T04:34:51;100910.38;;;-0.40;100.00
46087;BME280;31824;49.648;8.640;2023-01-26T04:37:55;100907.09;;;-0.39;100.00
46087;BME280;31824;49.648;8.640;2023-01-26T04:40:57;100899.34;;;-0.39;100.00
46087;BME280;31824;49.648;8.640;2023-01-26T04:43:59;100896.34;;;-0.48;100.00
46087;BME280;31824;49.648;8.640;2023-01-26T04:47:01;100891.91;;;-0.49;100.00
46087;BME280;31824;49.648;8.640;2023-01-26T04:50:05;100892.84;;;-0.48;100.00
46087;BME280;31824;49.648;8.640;2023-01-26T04:53:07;100888.59;;;-0.48;100.00
46087;BME280;31824;49.648;8.640;2023-01-26T04:56:19;100888.34;;;-0.44;100.00
46087;BME280;31824;49.648;8.640;2023-01-26T04:59:23;100884.84;;;-0.44;100.00
46087;BME280;31824;49.648;8.640;2023-01-26T05:02:29;100884.56;;;-0.40;100.00
46087;BME280;31824;49.648;8.640;2023-01-26T05:05:35;100884.34;;;-0.42;100.00
46087;BME280;31824;49.648;8.640;2023-01-26T05:08:37;100880.06;;;-0.36;100.00
46087;BME280;31824;49.648;8.640;2023-01-26T05:11:39;100873.06;;;-0.37;100.00
46087;BME280;31824;49.648;8.640;2023-01-26T05:15:05;100867.91;;;-0.37;100.00
46087;BME280;31824;49.648;8.640;2023-01-26T05:18:20;100872.53;;;-0.28;100.00
46087;BME280;31824;49.648;8.640;2023-01-26T05:21:39;100878.22;;;-0.42;100.00
46087;BME280;31824;49.648;8.640;2023-01-26T05:24:40;100866.94;;;-0.37;100.00
46087;BME280;31824;49.648;8.640;2023-01-26T05:28:00;100862.00;;;-0.36;100.00
46087;BME280;31824;49.648;8.640;2023-01-26T05:31:03;100862.75;;;-0.42;100.00
46087;BME280;31824;49.648;8.640;2023-01-26T05:34:05;100860.38;;;-0.35;100.00
46087;BME280;31824;49.648;8.640;2023-01-26T05:37:10;100870.66;;;-0.29;100.00
46087;BME280;31824;49.648;8.640;2023-01-26T05:40:17;100873.00;;;-0.31;100.00
46087;BME280;31824;49.648;8.640;2023-01-26T05:43:19;100872.53;;;-0.34;100.00
46087;BME280;31824;49.648;8.640;2023-01-26T05:46:43;100883.81;;;-0.33;100.00
46087;BME280;31824;49.648;8.640;2023-01-26T05:49:45;100886.13;;;-0.29;100.00
46087;BME280;31824;49.648;8.640;2023-01-26T05:52:53;100879.25;;;-0.23;100.00
46087;BME280;31824;49.648;8.640;2023-01-26T05:55:55;100873.50;;;-0.33;100.00
46087;BME280;31824;49.648;8.640;2023-01-26T05:58:58;100876.78;;;-0.35;100.00
46087;BME280;31824;49.648;8.640;2023-01-26T06:02:01;100893.38;;;-0.57;100.00
46087;BME280;31824;49.648;8.640;2023-01-26T06:05:04;100900.63;;;-0.54;100.00
46087;BME280;31824;49.648;8.640;2023-01-26T06:08:07;100902.69;;;-0.46;100.00
46087;BME280;31824;49.648;8.640;2023-01-26T06:11:23;100905.56;;;-0.56;100.00
46087;BME280;31824;49.648;8.640;2023-01-26T06:14:39;100911.47;;;-0.62;100.00
46087;BME280;31824;49.648;8.640;2023-01-26T06:17:41;100921.31;;;-0.65;100.00
46087;BME280;31824;49.648;8.640;2023-01-26T06:20:46;100917.84;;;-0.72;100.00
46087;BME280;31824;49.648;8.640;2023-01-26T06:23:49;100925.84;;;-0.76;100.00
46087;BME280;31824;49.648;8.640;2023-01-26T06:26:51;100934.28;;;-0.77;100.00
46087;BME280;31824;49.648;8.640;2023-01-26T06:29:53;100932.59;;;-0.65;100.00
46087;BME280;31824;49.648;8.640;2023-01-26T06:32:55;100929.59;;;-0.79;100.00
46087;BME280;31824;49.648;8.640;2023-01-26T06:36:00;100934.31;;;-0.82;100.00
46087;BME280;31824;49.648;8.640;2023-01-26T06:39:04;100938.03;;;-0.75;100.00
46087;BME280;31824;49.648;8.640;2023-01-26T06:42:07;100928.72;;;-0.86;100.00
46087;BME280;31824;49.648;8.640;2023-01-26T06:45:09;100936.19;;;-0.87;100.00
46087;BME280;31824;49.648;8.640;2023-01-26T06:48:12;100932.72;;;-0.93;100.00
46087;BME280;31824;49.648;8.640;2023-01-26T06:51:44;100932.94;;;-0.92;100.00
46087;BME280;31824;49.648;8.640;2023-01-26T06:54:49;100925.19;;;-0.92;100.00
46087;BME280;31824;49.648;8.640;2023-01-26T06:57:59;100930.84;;;-0.94;100.00
46087;BME280;31824;49.648;8.640;2023-01-26T07:01:25;100931.09;;;-0.98;100.00
46087;BME280;31824;49.648;8.640;2023-01-26T07:04:27;100932.72;;;-0.93;100.00
46087;BME280;31824;49.648;8.640;2023-01-26T07:07:28;100925.22;;;-0.97;100.00
46087;BME280;31824;49.648;8.640;2023-01-26T07:10:31;100930.09;;;-0.88;100.00
46087;BME280;31824;49.648;8.640;2023-01-26T07:13:33;100921.19;;;-0.84;100.00
46087;BME280;31824;49.648;8.640;2023-01-26T07:16:35;100921.69;;;-0.92;100.00
46087;BME280;31824;49.648;8.640;2023-01-26T07:19:37;100935.97;;;-0.89;100.00
46087;BME280;31824;49.648;8.640;2023-01-26T07:22:38;100937.41;;;-0.91;100.00
46087;BME280;31824;49.648;8.640;2023-01-26T07:25:43;100937.22;;;-0.98;100.00
46087;BME280;31824;49.648;8.640;2023-01-26T07:28:45;100940.66;;;-0.86;100.00
46087;BME280;31824;49.648;8.640;2023-01-26T07:31:46;100937.88;;;-0.93;100.00
46087;BME280;31824;49.648;8.640;2023-01-26T07:34:48;100940.44;;;-0.88;100.00
46087;BME280;31824;49.648;8.640;2023-01-26T07:37:50;100946.03;;;-0.85;100.00
46087;BME280;31824;49.648;8.640;2023-01-26T07:40:53;100943.47;;;-0.90;100.00
46087;BME280;31824;49.648;8.640;2023-01-26T07:43:55;100940.94;;;-0.96;100.00
46087;BME280;31824;49.648;8.640;2023-01-26T07:46:57;100945.63;;;-0.93;100.00
46087;BME280;31824;49.648;8.640;2023-01-26T07:49:58;100945.16;;;-0.96;100.00
46087;BME280;31824;49.648;8.640;2023-01-26T07:53:00;100947.03;;;-0.90;100.00
46087;BME280;31824;49.648;8.640;2023-01-26T07:56:11;100952.84;;;-0.85;100.00
46087;BME280;31824;49.648;8.640;2023-01-26T07:59:13;100951.94;;;-0.86;100.00
46087;BME280;31824;49.648;8.640;2023-01-26T08:02:15;100954.47;;;-0.80;100.00
46087;BME280;31824;49.648;8.640;2023-01-26T08:05:16;100945.78;;;-0.80;100.00
46087;BME280;31824;49.648;8.640;2023-01-26T08:08:18;100943.25;;;-0.92;100.00
46087;BME280;31824;49.648;8.640;2023-01-26T08:11:21;100950.06;;;-0.92;100.00
46087;BME280;31824;49.648;8.640;2023-01-26T08:14:24;100942.59;;;-0.96;100.00
46087;BME280;31824;49.648;8.640;2023-01-26T08:17:35;100947.28;;;-0.94;100.00
46087;BME280;31824;49.648;8.640;2023-01-26T08:20:38;100943.53;;;-1.02;100.00
46087;BME280;31824;49.648;8.640;2023-01-26T08:23:40;100944.94;;;-1.04;100.00
46087;BME280;31824;49.648;8.640;2023-01-26T08:26:44;100946.09;;;-0.96;100.00
46087;BME280;31824;49.648;8.640;2023-01-26T08:29:45;100952.41;;;-0.88;100.00
46087;BME280;31824;49.648;8.640;2023-01-26T08:32:47;100961.03;;;-0.82;100.00
46087;BME280;31824;49.648;8.640;2023-01-26T08:35:49;100962.22;;;-0.80;100.00
46087;BME280;31824;49.648;8.640;2023-01-26T08:38:51;100967.66;;;-0.90;100.00
46087;BME280;31824;49.648;8.640;2023-01-26T08:41:54;100967.06;;;-0.64;100.00
46087;BME280;31824;49.648;8.640;2023-01-26T08:44:56;100972.25;;;-0.70;100.00
46087;BME280;31824;49.648;8.640;2023-01-26T08:47:57;100961.44;;;-0.68;100.00
46087;BME280;31824;49.648;8.640;2023-01-26T08:51:00;100952.97;;;-0.61;100.00
46087;BME280;31824;49.648;8.640;2023-01-26T08:54:04;100957.66;;;-0.58;100.00
46087;BME280;31824;49.648;8.640;2023-01-26T08:57:07;100962.19;;;-0.74;100.00
46087;BME280;31824;49.648;8.640;2023-01-26T09:00:10;100964.94;;;-0.61;100.00
46087;BME280;31824;49.648;8.640;2023-01-26T09:03:12;100963.34;;;-0.72;100.00
46087;BME280;31824;49.648;8.640;2023-01-26T09:06:14;100957.94;;;-0.74;100.00
46087;BME280;31824;49.648;8.640;2023-01-26T09:09:16;100968.94;;;-0.63;100.00
46087;BME280;31824;49.648;8.640;2023-01-26T09:12:19;100966.84;;;-0.66;100.00
46087;BME280;31824;49.648;8.640;2023-01-26T09:15:21;100966.13;;;-0.65;100.00
46087;BME280;31824;49.648;8.640;2023-01-26T09:18:22;100957.69;;;-0.64;100.00
46087;BME280;31824;49.648;8.640;2023-01-26T09:21:24;100969.63;;;-0.64;100.00
46087;BME280;31824;49.648;8.640;2023-01-26T09:24:26;100963.03;;;-0.57;100.00
46087;BME280;31824;49.648;8.640;2023-01-26T09:27:29;100967.28;;;-0.63;100.00
46087;BME280;31824;49.648;8.640;2023-01-26T09:30:31;100965.22;;;-0.71;100.00
46087;BME280;31824;49.648;8.640;2023-01-26T09:33:34;100971.53;;;-0.63;100.00
46087;BME280;31824;49.648;8.640;2023-01-26T09:36:35;100962.59;;;-0.60;100.00
46087;BME280;31824;49.648;8.640;2023-01-26T09:39:37;100964.69;;;-0.63;100.00
46087;BME280;31824;49.648;8.640;2023-01-26T09:42:45;100959.47;;;-0.46;100.00
46087;BME280;31824;49.648;8.640;2023-01-26T09:45:58;100955.75;;;-0.54;100.00
46087;BME280;31824;49.648;8.640;2023-01-26T09:49:04;100965.38;;;-0.53;100.00
46087;BME280;31824;49.648;8.640;2023-01-26T09:52:12;100961.41;;;-0.62;100.00
46087;BME280;31824;49.648;8.640;2023-01-26T09:55:18;100959.06;;;-0.60;100.00
46087;BME280;31824;49.648;8.640;2023-01-26T09:58:30;100965.41;;;-0.58;100.00
46087;BME280;31824;49.648;8.640;2023-01-26T10:01:37;100954.34;;;-0.52;100.00
46087;BME280;31824;49.648;8.640;2023-01-26T10:04:42;100950.72;;;-0.35;100.00
46087;BME280;31824;49.648;8.640;2023-01-26T10:07:45;100948.97;;;-0.23;100.00
46087;BME280;31824;49.648;8.640;2023-01-26T10:10:49;100944.66;;;-0.41;100.00
46087;BME280;31824;49.648;8.640;2023-01-26T10:13:58;100941.28;;;-0.29;100.00
46087;BME280;31824;49.648;8.640;2023-01-26T10:17:04;100942.75;;;-0.42;100.00
46087;BME280;31824;49.648;8.640;2023-01-26T10:20:16;100949.31;;;-0.39;100.00
46087;BME280;31824;49.648;8.640;2023-01-26T10:23:24;100942.81;;;-0.48;100.00
46087;BME280;31824;49.648;8.640;2023-01-26T10:26:31;100936.75;;;-0.54;100.00
46087;BME280;31824;49.648;8.640;2023-01-26T10:29:34;100933.50;;;-0.64;100.00
46087;BME280;31824;49.648;8.640;2023-01-26T10:32:36;100933.47;;;-0.59;100.00
46087;BME280;31824;49.648;8.640;2023-01-26T10:35:38;100934.13;;;-0.48;100.00
46087;BME280;31824;49.648;8.640;2023-01-26T10:38:41;100932.69;;;-0.41;100.00
46087;BME280;31824;49.648;8.640;2023-01-26T10:41:55;100928.50;;;-0.46;100.00
46087;BME280;31824;49.648;8.640;2023-01-26T10:45:01;100937.38;;;-0.44;100.00
46087;BME280;31824;49.648;8.640;2023-01-26T10:48:15;100926.47;;;-0.65;100.00
46087;BME280;31824;49.648;8.640;2023-01-26T10:51:23;100918.97;;;-0.58;100.00
46087;BME280;31824;49.648;8.640;2023-01-26T10:54:26;100921.69;;;-0.45;100.00
46087;BME280;31824;49.648;8.640;2023-01-26T10:57:29;100922.59;;;-0.39;100.00
46087;BME280;31824;49.648;8.640;2023-01-26T11:00:34;100917.44;;;-0.39;100.00
46087;BME280;31824;49.648;8.640;2023-01-26T11:03:37;100916.84;;;-0.61;100.00
46087;BME280;31824;49.648;8.640;2023-01-26T11:06:39;100910.22;;;-0.53;100.00
46087;BME280;31824;49.648;8.640;2023-01-26T11:09:41;100913.06;;;-0.52;100.00
46087;BME280;31824;49.648;8.640;2023-01-26T11:12:43;100906.88;;;-0.41;100.00
46087;BME280;31824;49.648;8.640;2023-01-26T11:15:47;100903.59;;;-0.45;100.00
46087;BME280;31824;49.648;8.640;2023-01-26T11:18:54;100903.13;;;-0.43;100.00
46087;BME280;31824;49.648;8.640;2023-01-26T11:22:04;100900.28;;;-0.39;100.00
46087;BME280;31824;49.648;8.640;2023-01-26T11:25:14;100896.56;;;-0.46;100.00
46087;BME280;31824;49.648;8.640;2023-01-26T11:28:31;100896.03;;;-0.32;100.00
46087;BME280;31824;49.648;8.640;2023-01-26T11:31:45;100892.34;;;-0.46;100.00
46087;BME280;31824;49.648;8.640;2023-01-26T11:35:03;100890.91;;;-0.44;100.00
46087;BME280;31824;49.648;8.640;2023-01-26T11:38:21;100889.06;;;-0.45;100.00
46087;BME280;31824;49.648;8.640;2023-01-26T11:41:36;100882.47;;;-0.43;100.00
46087;BME280;31824;49.648;8.640;2023-01-26T11:45:01;100883.66;;;-0.46;100.00
46087;BME280;31824;49.648;8.640;2023-01-26T11:48:16;100872.69;;;-0.51;100.00
46087;BME280;31824;49.648;8.640;2023-01-26T11:51:32;100868.91;;;-0.47;100.00
46087;BME280;31824;49.648;8.640;2023-01-26T11:54:50;100871.53;;;-0.59;100.00
46087;BME280;31824;49.648;8.640;2023-01-26T11:58:09;100868.69;;;-0.55;100.00
46087;BME280;31824;49.648;8.640;2023-01-26T12:01:21;100857.63;;;-0.48;100.00
46087;BME280;31824;49.648;8.640;2023-01-26T12:04:33;100863.53;;;-0.55;100.00
46087;BME280;31824;49.648;8.640;2023-01-26T12:07:44;100852.94;;;-0.51;100.00
46087;BME280;31824;49.648;8.640;2023-01-26T12:11:00;100844.56;;;-0.55;100.00
46087;BME280;31824;49.648;8.640;2023-01-26T12:14:27;100844.28;;;-0.51;100.00
46087;BME280;31824;49.648;8.640;2023-01-26T12:17:43;100851.16;;;-0.63;100.00
46087;BME280;31824;49.648;8.640;2023-01-26T12:20:53;100847.88;;;-0.62;100.00
46087;BME280;31824;49.648;8.640;2023-01-26T12:23:58;100841.06;;;-0.56;100.00
46087;BME280;31824;49.648;8.640;2023-01-26T12:27:04;100834.44;;;-0.54;100.00
46087;BME280;31824;49.648;8.640;2023-01-26T12:30:21;100829.97;;;-0.49;100.00
46087;BME280;31824;49.648;8.640;2023-01-26T12:33:24;100829.78;;;-0.56;100.00
46087;BME280;31824;49.648;8.640;2023-01-26T12:36:37;100830.03;;;-0.60;100.00
46087;BME280;31824;49.648;8.640;2023-01-26T12:39:43;100824.63;;;-0.56;100.00
46087;BME280;31824;49.648;8.640;2023-01-26T12:42:50;100825.56;;;-0.61;100.00
46087;BME280;31824;49.648;8.640;2023-01-26T12:45:55;100824.81;;;-0.49;100.00
46087;BME280;31824;49.648;8.640;2023-01-26T12:49:03;100819.19;;;-0.52;100.00
46087;BME280;31824;49.648;8.640;2023-01-26T12:52:12;100816.59;;;-0.52;100.00
46087;BME280;31824;49.648;8.640;2023-01-26T12:55:19;100812.13;;;-0.47;100.00
46087;BME280;31824;49.648;8.640;2023-01-26T12:58:26;100810.91;;;-0.44;100.00
46087;BME280;31824;49.648;8.640;2023-01-26T13:01:36;100808.78;;;-0.71;100.00
46087;BME280;31824;49.648;8.640;2023-01-26T13:04:39;100807.50;;;-0.56;100.00
46087;BME280;31824;49.648;8.640;2023-01-26T13:07:44;100807.88;;;-0.47;100.00
46087;BME280;31824;49.648;8.640;2023-01-26T13:10:48;100806.28;;;-0.52;100.00
46087;BME280;31824;49.648;8.640;2023-01-26T13:13:54;100806.47;;;-0.45;100.00
46087;BME280;31824;49.648;8.640;2023-01-26T13:17:39;100803.47;;;-0.54;100.00
46087;BME280;31824;49.648;8.640;2023-01-26T13:20:49;100811.59;;;-0.39;100.00
46087;BME280;31824;49.648;8.640;2023-01-26T13:23:52;100810.25;;;-0.48;100.00
46087;BME280;31824;49.648;8.640;2023-01-26T13:26:54;100799.34;;;-0.64;100.00
46087;BME280;31824;49.648;8.640;2023-01-26T13:29:57;100801.22;;;-0.63;100.00
46087;BME280;31824;49.648;8.640;2023-01-26T13:33:14;100809.75;;;-0.46;100.00
46087;BME280;31824;49.648;8.640;2023-01-26T13:36:18;100791.72;;;-0.81;100.00
46087;BME280;31824;49.648;8.640;2023-01-26T13:39:28;100804.09;;;-0.73;100.00
46087;BME280;31824;49.648;8.640;2023-01-26T13:42:35;100808.97;;;-0.63;100.00
46087;BME280;31824;49.648;8.640;2023-01-26T13:45:44;100808.53;;;-0.72;100.00
46087;BME280;31824;49.648;8.640;2023-01-26T13:48:49;100806.59;;;-0.62;100.00
46087;BME280;31824;49.648;8.640;2023-01-26T13:51:51;100819.28;;;-0.63;100.00
46087;BME280;31824;49.648;8.640;2023-01-26T13:54:55;100819.66;;;-0.55;100.00
46087;BME280;31824;49.648;8.640;2023-01-26T13:58:11;100819.66;;;-0.49;100.00
46087;BME280;31824;49.648;8.640;2023-01-26T14:01:15;100818.44;;;-0.45;100.00
46087;BME280;31824;49.648;8.640;2023-01-26T14:04:20;100816.69;;;-0.33;100.00
46087;BME280;31824;49.648;8.640;2023-01-26T14:07:25;100812.63;;;-0.50;100.00
46087;BME280;31824;49.648;8.640;2023-01-26T14:10:29;100812.94;;;-0.60;100.00
46087;BME280;31824;49.648;8.640;2023-01-26T14:13:34;100826.06;;;-0.34;100.00
46087;BME280;31824;49.648;8.640;2023-01-26T14:16:37;100824.28;;;-0.46;100.00
46087;BME280;31824;49.648;8.640;2023-01-26T14:19:40;100825.47;;;-0.44;100.00
46087;BME280;31824;49.648;8.640;2023-01-26T14:22:42;100824.34;;;-0.52;100.00
46087;BME280;31824;49.648;8.640;2023-01-26T14:25:56;100826.75;;;-0.59;100.00
46087;BME280;31824;49.648;8.640;2023-01-26T14:28:58;100826.16;;;-0.45;100.00
46087;BME280;31824;49.648;8.640;2023-01-26T14:32:01;100829.34;;;-0.59;100.00
46087;BME280;31824;49.648;8.640;2023-01-26T14:35:18;100819.50;;;-0.62;100.00
46087;BME280;31824;49.648;8.640;2023-01-26T14:38:24;100823.03;;;-0.67;100.00
46087;BME280;31824;49.648;8.640;2023-01-26T14:41:31;100828.69;;;-0.70;100.00
46087;BME280;31824;49.648;8.640;2023-01-26T14:44:34;100829.38;;;-0.65;100.00
46087;BME280;31824;49.648;8.640;2023-01-26T14:47:55;100838.34;;;-0.74;100.00
46087;BME280;31824;49.648;8.640;2023-01-26T14:51:02;100837.56;;;-0.62;100.00
46087;BME280;31824;49.648;8.640;2023-01-26T14:54:14;100842.75;;;-0.68;100.00
46087;BME280;31824;49.648;8.640;2023-01-26T14:57:21;100841.31;;;-0.65;100.00
46087;BME280;31824;49.648;8.640;2023-01-26T15:00:26;100844.66;;;-0.66;100.00
46087;BME280;31824;49.648;8.640;2023-01-26T15:03:32;100841.75;;;-0.57;100.00
46087;BME280;31824;49.648;8.640;2023-01-26T15:06:36;100856.06;;;-0.59;100.00
46087;BME280;31824;49.648;8.640;2023-01-26T15:09:38;100861.53;;;-0.69;100.00
46087;BME280;31824;49.648;8.640;2023-01-26T15:12:41;100869.28;;;-0.69;100.00
46087;BME280;31824;49.648;8.640;2023-01-26T15:15:44;100868.59;;;-0.73;100.00
46087;BME280;31824;49.648;8.640;2023-01-26T15:18:56;100861.38;;;-0.87;100.00
46087;BME280;31824;49.648;8.640;2023-01-26T15:21:59;100860.66;;;-0.75;100.00
46087;BME280;31824;49.648;8.640;2023-01-26T15:25:05;100862.31;;;-0.81;100.00
46087;BME280;31824;49.648;8.640;2023-01-26T15:28:15;100861.34;;;-0.76;100.00
46087;BME280;31824;49.648;8.640;2023-01-26T15:31:19;100862.53;;;-0.79;100.00
46087;BME280;31824;49.648;8.640;2023-01-26T15:34:29;100856.88;;;-0.77;100.00
46087;BME280;31824;49.648;8.640;2023-01-26T15:37:32;100861.13;;;-0.83;100.00
46087;BME280;31824;49.648;8.640;2023-01-26T15:40:35;100861.66;;;-0.86;100.00
46087;BME280;31824;49.648;8.640;2023-01-26T15:43:38;100849.72;;;-0.91;100.00
46087;BME280;31824;49.648;8.640;2023-01-26T15:46:39;100844.72;;;-0.83;100.00
46087;BME280;31824;49.648;8.640;2023-01-26T15:49:41;100846.09;;;-0.74;100.00
46087;BME280;31824;49.648;8.640;2023-01-26T15:52:43;100830.69;;;-0.86;100.00
46087;BME280;31824;49.648;8.640;2023-01-26T15:55:46;100836.28;;;-0.82;100.00
46087;BME280;31824;49.648;8.640;2023-01-26T15:58:58;100830.00;;;-0.90;100.00
46087;BME280;31824;49.648;8.640;2023-01-26T16:02:03;100837.47;;;-0.86;100.00